sensor_id;sensor_type;location;lat;lon;timestamp;P1;durP1;ratioP1;P2;durP2;ratioP2
14982;SDS011;7587;51.494;11.930;2022-07-29T00:01:49;3.25;;;1.33;;
14982;SDS011;7587;51.494;11.930;2022-07-29T00:04:17;1.83;;;1.17;;
14982;SDS011;7587;51.494;11.930;2022-07-29T00:06:43;2.30;;;1.15;;
14982;SDS011;7587;51.494;11.930;2022-07-29T00:09:10;3.13;;;1.27;;
14982;SDS011;7587;51.494;11.930;2022-07-29T00:11:37;3.90;;;1.55;;
14982;SDS011;7587;51.494;11.930;2022-07-29T00:14:04;4.22;;;1.50;;
14982;SDS011;7587;51.494;11.930;2022-07-29T00:16:45;2.88;;;1.50;;
14982;SDS011;7587;51.494;11.930;2022-07-29T00:19:12;1.15;;;1.05;;
14982;SDS011;7587;51.494;11.930;2022-07-29T00:21:38;2.83;;;1.27;;
14982;SDS011;7587;51.494;11.930;2022-07-29T00:24:04;1.35;;;0.82;;
14982;SDS011;7587;51.494;11.930;2022-07-29T00:26:31;2.33;;;1.30;;
14982;SDS011;7587;51.494;11.930;2022-07-29T00:29:00;4.00;;;1.30;;
14982;SDS011;7587;51.494;11.930;2022-07-29T00:31:26;2.83;;;1.30;;
14982;SDS011;7587;51.494;11.930;2022-07-29T00:33:54;2.63;;;1.35;;
14982;SDS011;7587;51.494;11.930;2022-07-29T00:36:21;2.65;;;1.42;;
14982;SDS011;7587;51.494;11.930;2022-07-29T00:38:47;3.10;;;1.38;;
14982;SDS011;7587;51.494;11.930;2022-07-29T00:41:13;5.38;;;1.60;;
14982;SDS011;7587;51.494;11.930;2022-07-29T00:43:39;3.95;;;1.40;;
14982;SDS011;7587;51.494;11.930;2022-07-29T00:46:06;2.30;;;1.48;;
14982;SDS011;7587;51.494;11.930;2022-07-29T00:51:46;5.20;;;1.40;;
14982;SDS011;7587;51.494;11.930;2022-07-29T00:57:13;3.30;;;1.30;;
14982;SDS011;7587;51.494;11.930;2022-07-29T00:59:39;4.85;;;1.33;;
14982;SDS011;7587;51.494;11.930;2022-07-29T01:02:06;2.67;;;1.20;;
14982;SDS011;7587;51.494;11.930;2022-07-29T01:04:32;3.22;;;1.40;;
14982;SDS011;7587;51.494;11.930;2022-07-29T01:09:47;4.80;;;1.58;;
14982;SDS011;7587;51.494;11.930;2022-07-29T01:12:15;4.43;;;1.63;;
14982;SDS011;7587;51.494;11.930;2022-07-29T01:14:43;3.00;;;1.20;;
14982;SDS011;7587;51.494;11.930;2022-07-29T01:17:14;7.00;;;1.58;;
14982;SDS011;7587;51.494;11.930;2022-07-29T01:19:45;3.05;;;1.50;;
14982;SDS011;7587;51.494;11.930;2022-07-29T01:22:19;1.13;;;1.02;;
14982;SDS011;7587;51.494;11.930;2022-07-29T01:28:08;2.88;;;1.63;;
14982;SDS011;7587;51.494;11.930;2022-07-29T01:30:40;3.53;;;1.13;;
14982;SDS011;7587;51.494;11.930;2022-07-29T01:33:09;6.18;;;1.27;;
14982;SDS011;7587;51.494;11.930;2022-07-29T01:35:56;3.80;;;1.20;;
14982;SDS011;7587;51.494;11.930;2022-07-29T01:41:59;1.95;;;1.23;;
14982;SDS011;7587;51.494;11.930;2022-07-29T01:44:35;4.03;;;1.42;;
14982;SDS011;7587;51.494;11.930;2022-07-29T01:50:08;3.33;;;1.45;;
14982;SDS011;7587;51.494;11.930;2022-07-29T01:52:37;3.30;;;1.30;;
14982;SDS011;7587;51.494;11.930;2022-07-29T01:55:07;3.42;;;1.55;;
14982;SDS011;7587;51.494;11.930;2022-07-29T01:57:34;3.22;;;1.10;;
14982;SDS011;7587;51.494;11.930;2022-07-29T02:00:04;3.72;;;1.38;;
14982;SDS011;7587;51.494;11.930;2022-07-29T02:02:30;2.72;;;1.30;;
14982;SDS011;7587;51.494;11.930;2022-07-29T02:04:57;4.53;;;1.15;;
14982;SDS011;7587;51.494;11.930;2022-07-29T02:07:28;5.28;;;1.25;;
14982;SDS011;7587;51.494;11.930;2022-07-29T02:09:55;3.08;;;1.38;;
14982;SDS011;7587;51.494;11.930;2022-07-29T02:12:22;4.78;;;1.50;;
14982;SDS011;7587;51.494;11.930;2022-07-29T02:18:17;2.45;;;1.42;;
14982;SDS011;7587;51.494;11.930;2022-07-29T02:26:57;4.15;;;1.52;;
14982;SDS011;7587;51.494;11.930;2022-07-29T02:29:29;2.72;;;1.05;;
14982;SDS011;7587;51.494;11.930;2022-07-29T02:31:58;1.77;;;1.15;;
14982;SDS011;7587;51.494;11.930;2022-07-29T02:34:26;2.90;;;1.48;;
14982;SDS011;7587;51.494;11.930;2022-07-29T02:36:53;3.17;;;1.25;;
14982;SDS011;7587;51.494;11.930;2022-07-29T02:39:20;3.58;;;1.20;;
14982;SDS011;7587;51.494;11.930;2022-07-29T02:41:48;3.10;;;1.40;;
14982;SDS011;7587;51.494;11.930;2022-07-29T02:44:17;4.28;;;1.40;;
14982;SDS011;7587;51.494;11.930;2022-07-29T02:46:46;4.40;;;1.40;;
14982;SDS011;7587;51.494;11.930;2022-07-29T02:49:27;3.75;;;1.45;;
14982;SDS011;7587;51.494;11.930;2022-07-29T02:51:56;1.92;;;1.25;;
14982;SDS011;7587;51.494;11.930;2022-07-29T02:54:25;3.53;;;1.67;;
14982;SDS011;7587;51.494;11.930;2022-07-29T02:56:52;4.28;;;1.50;;
14982;SDS011;7587;51.494;11.930;2022-07-29T03:02:39;3.67;;;1.33;;
14982;SDS011;7587;51.494;11.930;2022-07-29T03:05:08;3.83;;;1.20;;
14982;SDS011;7587;51.494;11.930;2022-07-29T03:07:35;2.13;;;1.40;;
14982;SDS011;7587;51.494;11.930;2022-07-29T03:10:03;6.45;;;1.42;;
14982;SDS011;7587;51.494;11.930;2022-07-29T03:12:29;2.22;;;1.23;;
14982;SDS011;7587;51.494;11.930;2022-07-29T03:14:56;2.45;;;1.33;;
14982;SDS011;7587;51.494;11.930;2022-07-29T03:17:39;6.88;;;1.65;;
14982;SDS011;7587;51.494;11.930;2022-07-29T03:20:06;2.30;;;1.33;;
14982;SDS011;7587;51.494;11.930;2022-07-29T03:22:33;4.70;;;1.45;;
14982;SDS011;7587;51.494;11.930;2022-07-29T03:28:13;4.68;;;1.80;;
14982;SDS011;7587;51.494;11.930;2022-07-29T03:30:41;2.47;;;1.27;;
14982;SDS011;7587;51.494;11.930;2022-07-29T03:33:10;2.33;;;1.52;;
14982;SDS011;7587;51.494;11.930;2022-07-29T03:35:38;2.55;;;1.52;;
14982;SDS011;7587;51.494;11.930;2022-07-29T03:38:07;3.67;;;1.52;;
14982;SDS011;7587;51.494;11.930;2022-07-29T03:40:35;5.38;;;1.40;;
14982;SDS011;7587;51.494;11.930;2022-07-29T03:43:04;3.00;;;1.60;;
14982;SDS011;7587;51.494;11.930;2022-07-29T03:45:32;10.70;;;1.30;;
14982;SDS011;7587;51.494;11.930;2022-07-29T03:48:01;4.97;;;1.48;;
14982;SDS011;7587;51.494;11.930;2022-07-29T03:50:29;2.75;;;1.38;;
14982;SDS011;7587;51.494;11.930;2022-07-29T03:52:56;2.03;;;1.40;;
14982;SDS011;7587;51.494;11.930;2022-07-29T03:55:23;1.65;;;1.40;;
14982;SDS011;7587;51.494;11.930;2022-07-29T04:01:12;2.25;;;1.60;;
14982;SDS011;7587;51.494;11.930;2022-07-29T04:03:39;3.92;;;1.38;;
14982;SDS011;7587;51.494;11.930;2022-07-29T04:06:07;3.30;;;1.63;;
14982;SDS011;7587;51.494;11.930;2022-07-29T04:08:53;2.75;;;1.40;;
14982;SDS011;7587;51.494;11.930;2022-07-29T04:11:22;2.53;;;1.38;;
14982;SDS011;7587;51.494;11.930;2022-07-29T04:13:49;3.28;;;1.48;;
14982;SDS011;7587;51.494;11.930;2022-07-29T04:16:16;1.38;;;1.20;;
14982;SDS011;7587;51.494;11.930;2022-07-29T04:18:42;2.80;;;1.60;;
14982;SDS011;7587;51.494;11.930;2022-07-29T04:24:21;3.60;;;1.35;;
14982;SDS011;7587;51.494;11.930;2022-07-29T04:31:05;2.03;;;1.75;;
14982;SDS011;7587;51.494;11.930;2022-07-29T04:39:00;3.15;;;1.60;;
14982;SDS011;7587;51.494;11.930;2022-07-29T04:41:31;2.67;;;1.30;;
14982;SDS011;7587;51.494;11.930;2022-07-29T04:43:58;5.43;;;1.58;;
14982;SDS011;7587;51.494;11.930;2022-07-29T04:46:29;3.78;;;1.73;;
14982;SDS011;7587;51.494;11.930;2022-07-29T04:48:56;4.70;;;1.50;;
14982;SDS011;7587;51.494;11.930;2022-07-29T04:51:23;5.13;;;1.67;;
14982;SDS011;7587;51.494;11.930;2022-07-29T04:53:49;3.45;;;1.40;;
14982;SDS011;7587;51.494;11.930;2022-07-29T04:56:36;4.82;;;1.27;;
14982;SDS011;7587;51.494;11.930;2022-07-29T04:59:03;3.97;;;1.40;;
14982;SDS011;7587;51.494;11.930;2022-07-29T05:01:29;3.25;;;1.60;;
14982;SDS011;7587;51.494;11.930;2022-07-29T05:03:56;4.05;;;1.67;;
14982;SDS011;7587;51.494;11.930;2022-07-29T05:06:23;2.67;;;1.40;;
14982;SDS011;7587;51.494;11.930;2022-07-29T05:09:01;5.43;;;1.83;;
14982;SDS011;7587;51.494;11.930;2022-07-29T05:11:46;3.72;;;1.38;;
14982;SDS011;7587;51.494;11.930;2022-07-29T05:17:10;4.97;;;1.58;;
14982;SDS011;7587;51.494;11.930;2022-07-29T05:19:36;5.30;;;1.70;;
14982;SDS011;7587;51.494;11.930;2022-07-29T05:22:03;3.83;;;1.85;;
14982;SDS011;7587;51.494;11.930;2022-07-29T05:24:29;3.47;;;1.38;;
14982;SDS011;7587;51.494;11.930;2022-07-29T05:27:11;8.80;;;1.77;;
14982;SDS011;7587;51.494;11.930;2022-07-29T05:29:37;2.90;;;1.42;;
14982;SDS011;7587;51.494;11.930;2022-07-29T05:32:04;2.85;;;1.63;;
14982;SDS011;7587;51.494;11.930;2022-07-29T05:34:30;8.93;;;2.30;;
14982;SDS011;7587;51.494;11.930;2022-07-29T05:36:56;4.53;;;1.42;;
14982;SDS011;7587;51.494;11.930;2022-07-29T05:39:23;4.65;;;1.90;;
14982;SDS011;7587;51.494;11.930;2022-07-29T05:45:07;5.10;;;1.80;;
14982;SDS011;7587;51.494;11.930;2022-07-29T05:47:34;4.95;;;1.75;;
14982;SDS011;7587;51.494;11.930;2022-07-29T05:50:00;5.57;;;2.25;;
14982;SDS011;7587;51.494;11.930;2022-07-29T05:52:26;3.00;;;1.48;;
14982;SDS011;7587;51.494;11.930;2022-07-29T05:54:53;5.15;;;1.65;;
14982;SDS011;7587;51.494;11.930;2022-07-29T05:57:20;5.85;;;2.22;;
14982;SDS011;7587;51.494;11.930;2022-07-29T05:59:47;3.67;;;1.63;;
14982;SDS011;7587;51.494;11.930;2022-07-29T06:02:15;6.30;;;2.00;;
14982;SDS011;7587;51.494;11.930;2022-07-29T06:04:41;5.13;;;1.70;;
14982;SDS011;7587;51.494;11.930;2022-07-29T06:07:08;3.55;;;1.50;;
14982;SDS011;7587;51.494;11.930;2022-07-29T06:09:34;2.13;;;1.63;;
14982;SDS011;7587;51.494;11.930;2022-07-29T06:12:01;3.95;;;1.70;;
14982;SDS011;7587;51.494;11.930;2022-07-29T06:14:27;5.22;;;2.08;;
14982;SDS011;7587;51.494;11.930;2022-07-29T06:16:53;7.07;;;1.63;;
14982;SDS011;7587;51.494;11.930;2022-07-29T06:19:21;8.32;;;1.90;;
14982;SDS011;7587;51.494;11.930;2022-07-29T06:21:47;4.75;;;1.50;;
14982;SDS011;7587;51.494;11.930;2022-07-29T06:24:14;5.18;;;1.85;;
14982;SDS011;7587;51.494;11.930;2022-07-29T06:26:41;4.72;;;2.00;;
14982;SDS011;7587;51.494;11.930;2022-07-29T06:29:08;3.33;;;1.52;;
14982;SDS011;7587;51.494;11.930;2022-07-29T06:32:21;4.68;;;2.05;;
14982;SDS011;7587;51.494;11.930;2022-07-29T06:34:26;3.80;;;1.80;;
14982;SDS011;7587;51.494;11.930;2022-07-29T06:36:53;2.72;;;1.70;;
14982;SDS011;7587;51.494;11.930;2022-07-29T06:39:19;3.58;;;1.60;;
14982;SDS011;7587;51.494;11.930;2022-07-29T06:44:47;9.18;;;2.17;;
14982;SDS011;7587;51.494;11.930;2022-07-29T06:47:14;3.45;;;1.20;;
14982;SDS011;7587;51.494;11.930;2022-07-29T06:49:41;9.00;;;1.77;;
14982;SDS011;7587;51.494;11.930;2022-07-29T06:52:08;3.38;;;1.73;;
14982;SDS011;7587;51.494;11.930;2022-07-29T06:54:35;7.72;;;1.75;;
14982;SDS011;7587;51.494;11.930;2022-07-29T06:57:16;3.75;;;1.60;;
14982;SDS011;7587;51.494;11.930;2022-07-29T06:59:42;3.08;;;1.90;;
14982;SDS011;7587;51.494;11.930;2022-07-29T07:02:09;5.13;;;1.77;;
14982;SDS011;7587;51.494;11.930;2022-07-29T07:04:35;3.28;;;1.92;;
14982;SDS011;7587;51.494;11.930;2022-07-29T07:07:03;8.43;;;1.63;;
14982;SDS011;7587;51.494;11.930;2022-07-29T07:09:29;5.28;;;1.77;;
14982;SDS011;7587;51.494;11.930;2022-07-29T07:11:56;5.88;;;1.92;;
14982;SDS011;7587;51.494;11.930;2022-07-29T07:14:23;6.78;;;2.33;;
14982;SDS011;7587;51.494;11.930;2022-07-29T07:16:51;6.60;;;1.80;;
14982;SDS011;7587;51.494;11.930;2022-07-29T07:19:18;7.45;;;2.13;;
14982;SDS011;7587;51.494;11.930;2022-07-29T07:21:45;5.97;;;1.80;;
14982;SDS011;7587;51.494;11.930;2022-07-29T07:24:14;4.65;;;1.92;;
14982;SDS011;7587;51.494;11.930;2022-07-29T07:26:40;6.85;;;1.80;;
14982;SDS011;7587;51.494;11.930;2022-07-29T07:29:09;5.50;;;1.80;;
14982;SDS011;7587;51.494;11.930;2022-07-29T07:31:42;6.13;;;1.70;;
14982;SDS011;7587;51.494;11.930;2022-07-29T07:34:08;4.07;;;1.50;;
14982;SDS011;7587;51.494;11.930;2022-07-29T07:36:35;8.55;;;1.90;;
14982;SDS011;7587;51.494;11.930;2022-07-29T07:39:01;6.60;;;1.70;;
14982;SDS011;7587;51.494;11.930;2022-07-29T07:41:30;8.23;;;2.20;;
14982;SDS011;7587;51.494;11.930;2022-07-29T07:43:56;5.30;;;1.83;;
14982;SDS011;7587;51.494;11.930;2022-07-29T07:46:23;5.75;;;2.30;;
14982;SDS011;7587;51.494;11.930;2022-07-29T07:48:52;3.15;;;2.10;;
14982;SDS011;7587;51.494;11.930;2022-07-29T07:51:19;5.95;;;2.47;;
14982;SDS011;7587;51.494;11.930;2022-07-29T07:53:45;6.13;;;2.35;;
14982;SDS011;7587;51.494;11.930;2022-07-29T07:56:14;5.47;;;2.70;;
14982;SDS011;7587;51.494;11.930;2022-07-29T07:58:43;6.72;;;3.15;;
14982;SDS011;7587;51.494;11.930;2022-07-29T08:01:09;6.03;;;3.55;;
14982;SDS011;7587;51.494;11.930;2022-07-29T08:03:36;6.82;;;3.30;;
14982;SDS011;7587;51.494;11.930;2022-07-29T08:06:02;6.00;;;4.55;;
14982;SDS011;7587;51.494;11.930;2022-07-29T08:08:29;8.38;;;4.10;;
14982;SDS011;7587;51.494;11.930;2022-07-29T08:10:55;4.90;;;3.60;;
14982;SDS011;7587;51.494;11.930;2022-07-29T08:13:22;10.18;;;4.50;;
14982;SDS011;7587;51.494;11.930;2022-07-29T08:15:51;8.85;;;3.92;;
14982;SDS011;7587;51.494;11.930;2022-07-29T08:18:22;8.07;;;3.72;;
14982;SDS011;7587;51.494;11.930;2022-07-29T08:20:49;8.93;;;3.85;;
14982;SDS011;7587;51.494;11.930;2022-07-29T08:26:38;4.68;;;3.70;;
14982;SDS011;7587;51.494;11.930;2022-07-29T08:29:32;9.73;;;3.67;;
14982;SDS011;7587;51.494;11.930;2022-07-29T08:32:08;4.82;;;3.10;;
14982;SDS011;7587;51.494;11.930;2022-07-29T08:34:34;6.10;;;3.67;;
14982;SDS011;7587;51.494;11.930;2022-07-29T08:37:01;4.88;;;3.25;;
14982;SDS011;7587;51.494;11.930;2022-07-29T08:39:27;6.80;;;3.30;;
14982;SDS011;7587;51.494;11.930;2022-07-29T08:41:53;5.57;;;3.40;;
14982;SDS011;7587;51.494;11.930;2022-07-29T08:44:28;5.45;;;3.40;;
14982;SDS011;7587;51.494;11.930;2022-07-29T08:46:54;11.05;;;3.75;;
14982;SDS011;7587;51.494;11.930;2022-07-29T08:49:22;9.68;;;3.58;;
14982;SDS011;7587;51.494;11.930;2022-07-29T08:51:48;4.32;;;2.95;;
14982;SDS011;7587;51.494;11.930;2022-07-29T08:54:16;6.28;;;2.60;;
14982;SDS011;7587;51.494;11.930;2022-07-29T08:56:42;4.68;;;2.80;;
14982;SDS011;7587;51.494;11.930;2022-07-29T08:59:09;13.85;;;3.20;;
14982;SDS011;7587;51.494;11.930;2022-07-29T09:01:37;6.10;;;2.80;;
14982;SDS011;7587;51.494;11.930;2022-07-29T09:04:03;7.88;;;2.60;;
14982;SDS011;7587;51.494;11.930;2022-07-29T09:06:32;11.18;;;2.95;;
14982;SDS011;7587;51.494;11.930;2022-07-29T09:09:00;4.10;;;2.25;;
14982;SDS011;7587;51.494;11.930;2022-07-29T09:11:26;7.18;;;3.13;;
14982;SDS011;7587;51.494;11.930;2022-07-29T09:13:53;5.18;;;2.60;;
14982;SDS011;7587;51.494;11.930;2022-07-29T09:16:19;5.47;;;2.78;;
14982;SDS011;7587;51.494;11.930;2022-07-29T09:18:46;4.15;;;2.42;;
14982;SDS011;7587;51.494;11.930;2022-07-29T09:21:13;4.57;;;2.20;;
14982;SDS011;7587;51.494;11.930;2022-07-29T09:24:05;4.85;;;2.40;;
14982;SDS011;7587;51.494;11.930;2022-07-29T09:26:39;4.32;;;2.33;;
14982;SDS011;7587;51.494;11.930;2022-07-29T09:29:09;4.75;;;2.33;;
14982;SDS011;7587;51.494;11.930;2022-07-29T09:31:37;4.40;;;2.58;;
14982;SDS011;7587;51.494;11.930;2022-07-29T09:34:03;4.95;;;2.63;;
14982;SDS011;7587;51.494;11.930;2022-07-29T09:36:30;6.88;;;2.25;;
14982;SDS011;7587;51.494;11.930;2022-07-29T09:38:57;5.93;;;2.17;;
14982;SDS011;7587;51.494;11.930;2022-07-29T09:41:28;2.97;;;2.10;;
14982;SDS011;7587;51.494;11.930;2022-07-29T09:43:55;5.53;;;2.45;;
14982;SDS011;7587;51.494;11.930;2022-07-29T09:46:21;5.78;;;2.28;;
14982;SDS011;7587;51.494;11.930;2022-07-29T09:49:07;5.40;;;2.17;;
14982;SDS011;7587;51.494;11.930;2022-07-29T09:54:25;4.22;;;2.20;;
14982;SDS011;7587;51.494;11.930;2022-07-29T09:56:57;3.25;;;1.88;;
14982;SDS011;7587;51.494;11.930;2022-07-29T09:59:23;3.00;;;1.52;;
14982;SDS011;7587;51.494;11.930;2022-07-29T10:01:51;7.65;;;1.90;;
14982;SDS011;7587;51.494;11.930;2022-07-29T10:04:17;6.78;;;2.13;;
14982;SDS011;7587;51.494;11.930;2022-07-29T10:06:56;5.25;;;2.70;;
14982;SDS011;7587;51.494;11.930;2022-07-29T10:09:23;5.78;;;3.40;;
14982;SDS011;7587;51.494;11.930;2022-07-29T10:12:03;5.93;;;2.60;;
14982;SDS011;7587;51.494;11.930;2022-07-29T10:14:33;4.25;;;2.40;;
14982;SDS011;7587;51.494;11.930;2022-07-29T10:16:59;8.48;;;2.60;;
14982;SDS011;7587;51.494;11.930;2022-07-29T10:19:27;4.28;;;3.03;;
14982;SDS011;7587;51.494;11.930;2022-07-29T10:21:53;7.22;;;3.17;;
14982;SDS011;7587;51.494;11.930;2022-07-29T10:24:20;5.47;;;3.30;;
14982;SDS011;7587;51.494;11.930;2022-07-29T10:26:46;5.15;;;2.53;;
14982;SDS011;7587;51.494;11.930;2022-07-29T10:29:21;4.57;;;1.80;;
14982;SDS011;7587;51.494;11.930;2022-07-29T10:31:49;5.55;;;2.25;;
14982;SDS011;7587;51.494;11.930;2022-07-29T10:34:20;7.82;;;2.50;;
14982;SDS011;7587;51.494;11.930;2022-07-29T10:36:53;2.55;;;1.90;;
14982;SDS011;7587;51.494;11.930;2022-07-29T10:39:24;9.68;;;4.85;;
14982;SDS011;7587;51.494;11.930;2022-07-29T10:41:59;6.13;;;4.07;;
14982;SDS011;7587;51.494;11.930;2022-07-29T10:44:29;10.02;;;4.93;;
14982;SDS011;7587;51.494;11.930;2022-07-29T10:47:02;9.00;;;4.28;;
14982;SDS011;7587;51.494;11.930;2022-07-29T10:49:28;7.43;;;4.07;;
14982;SDS011;7587;51.494;11.930;2022-07-29T10:52:03;7.15;;;3.42;;
14982;SDS011;7587;51.494;11.930;2022-07-29T10:54:36;7.18;;;3.45;;
14982;SDS011;7587;51.494;11.930;2022-07-29T11:00:31;7.20;;;2.92;;
14982;SDS011;7587;51.494;11.930;2022-07-29T11:03:04;2.90;;;2.63;;
14982;SDS011;7587;51.494;11.930;2022-07-29T11:05:56;6.70;;;2.97;;
14982;SDS011;7587;51.494;11.930;2022-07-29T11:08:24;3.13;;;2.60;;
14982;SDS011;7587;51.494;11.930;2022-07-29T11:10:51;3.88;;;2.65;;
14982;SDS011;7587;51.494;11.930;2022-07-29T11:16:18;5.80;;;2.63;;
14982;SDS011;7587;51.494;11.930;2022-07-29T11:21:37;3.05;;;2.17;;
14982;SDS011;7587;51.494;11.930;2022-07-29T11:24:11;5.38;;;2.70;;
14982;SDS011;7587;51.494;11.930;2022-07-29T11:26:41;5.18;;;2.15;;
14982;SDS011;7587;51.494;11.930;2022-07-29T11:29:14;3.42;;;1.90;;
14982;SDS011;7587;51.494;11.930;2022-07-29T11:31:47;4.85;;;2.13;;
14982;SDS011;7587;51.494;11.930;2022-07-29T11:34:20;4.20;;;2.08;;
14982;SDS011;7587;51.494;11.930;2022-07-29T11:39:34;3.40;;;2.33;;
14982;SDS011;7587;51.494;11.930;2022-07-29T11:44:56;5.47;;;1.90;;
14982;SDS011;7587;51.494;11.930;2022-07-29T11:47:37;4.45;;;2.20;;
14982;SDS011;7587;51.494;11.930;2022-07-29T11:50:07;5.28;;;1.77;;
14982;SDS011;7587;51.494;11.930;2022-07-29T11:55:41;3.38;;;1.92;;
14982;SDS011;7587;51.494;11.930;2022-07-29T11:58:07;2.97;;;2.15;;
14982;SDS011;7587;51.494;11.930;2022-07-29T12:00:34;3.17;;;1.92;;
14982;SDS011;7587;51.494;11.930;2022-07-29T12:03:04;2.35;;;1.73;;
14982;SDS011;7587;51.494;11.930;2022-07-29T12:05:31;3.05;;;1.52;;
14982;SDS011;7587;51.494;11.930;2022-07-29T12:08:03;5.85;;;1.90;;
14982;SDS011;7587;51.494;11.930;2022-07-29T12:10:30;3.55;;;1.65;;
14982;SDS011;7587;51.494;11.930;2022-07-29T12:12:56;2.55;;;1.77;;
14982;SDS011;7587;51.494;11.930;2022-07-29T12:15:22;7.32;;;2.30;;
14982;SDS011;7587;51.494;11.930;2022-07-29T12:17:50;3.08;;;2.25;;
14982;SDS011;7587;51.494;11.930;2022-07-29T12:23:23;3.40;;;1.90;;
14982;SDS011;7587;51.494;11.930;2022-07-29T12:25:49;3.28;;;1.83;;
14982;SDS011;7587;51.494;11.930;2022-07-29T12:28:16;3.47;;;2.05;;
14982;SDS011;7587;51.494;11.930;2022-07-29T12:30:44;2.83;;;1.90;;
14982;SDS011;7587;51.494;11.930;2022-07-29T12:33:16;6.93;;;2.22;;
14982;SDS011;7587;51.494;11.930;2022-07-29T12:35:42;2.60;;;2.10;;
14982;SDS011;7587;51.494;11.930;2022-07-29T12:38:10;5.25;;;2.17;;
14982;SDS011;7587;51.494;11.930;2022-07-29T12:43:53;3.97;;;2.00;;
14982;SDS011;7587;51.494;11.930;2022-07-29T12:46:23;4.90;;;1.88;;
14982;SDS011;7587;51.494;11.930;2022-07-29T12:48:50;7.15;;;2.20;;
14982;SDS011;7587;51.494;11.930;2022-07-29T12:51:25;3.35;;;1.70;;
14982;SDS011;7587;51.494;11.930;2022-07-29T12:54:12;2.45;;;1.80;;
14982;SDS011;7587;51.494;11.930;2022-07-29T12:56:39;4.68;;;1.90;;
14982;SDS011;7587;51.494;11.930;2022-07-29T12:59:14;4.78;;;2.10;;
14982;SDS011;7587;51.494;11.930;2022-07-29T13:01:41;3.60;;;1.80;;
14982;SDS011;7587;51.494;11.930;2022-07-29T13:04:23;6.28;;;1.85;;
14982;SDS011;7587;51.494;11.930;2022-07-29T13:06:59;2.90;;;1.75;;
14982;SDS011;7587;51.494;11.930;2022-07-29T13:09:35;3.67;;;2.10;;
14982;SDS011;7587;51.494;11.930;2022-07-29T13:12:05;4.13;;;2.13;;
14982;SDS011;7587;51.494;11.930;2022-07-29T13:14:34;4.30;;;2.00;;
14982;SDS011;7587;51.494;11.930;2022-07-29T13:17:02;2.17;;;1.70;;
14982;SDS011;7587;51.494;11.930;2022-07-29T13:19:34;3.17;;;2.10;;
14982;SDS011;7587;51.494;11.930;2022-07-29T13:22:03;3.50;;;2.00;;
14982;SDS011;7587;51.494;11.930;2022-07-29T13:24:46;5.03;;;1.83;;
14982;SDS011;7587;51.494;11.930;2022-07-29T13:27:13;2.55;;;1.92;;
14982;SDS011;7587;51.494;11.930;2022-07-29T13:32:45;4.60;;;2.00;;
14982;SDS011;7587;51.494;11.930;2022-07-29T13:35:12;5.63;;;2.10;;
14982;SDS011;7587;51.494;11.930;2022-07-29T13:37:39;2.90;;;1.98;;
14982;SDS011;7587;51.494;11.930;2022-07-29T13:40:06;2.15;;;1.70;;
14982;SDS011;7587;51.494;11.930;2022-07-29T13:42:33;4.32;;;2.00;;
14982;SDS011;7587;51.494;11.930;2022-07-29T13:50:54;5.15;;;2.30;;
14982;SDS011;7587;51.494;11.930;2022-07-29T13:53:20;5.25;;;1.60;;
14982;SDS011;7587;51.494;11.930;2022-07-29T13:55:47;4.15;;;2.20;;
14982;SDS011;7587;51.494;11.930;2022-07-29T13:58:31;2.30;;;1.90;;
14982;SDS011;7587;51.494;11.930;2022-07-29T14:04:18;2.80;;;1.90;;
14982;SDS011;7587;51.494;11.930;2022-07-29T14:06:46;6.72;;;2.15;;
14982;SDS011;7587;51.494;11.930;2022-07-29T14:09:12;4.53;;;1.80;;
14982;SDS011;7587;51.494;11.930;2022-07-29T14:11:38;1.90;;;1.67;;
14982;SDS011;7587;51.494;11.930;2022-07-29T14:14:05;5.25;;;1.65;;
14982;SDS011;7587;51.494;11.930;2022-07-29T14:16:32;4.00;;;2.55;;
14982;SDS011;7587;51.494;11.930;2022-07-29T14:18:59;4.43;;;2.10;;
14982;SDS011;7587;51.494;11.930;2022-07-29T14:21:25;4.10;;;2.00;;
14982;SDS011;7587;51.494;11.930;2022-07-29T14:23:53;3.50;;;2.05;;
14982;SDS011;7587;51.494;11.930;2022-07-29T14:26:27;1.85;;;1.75;;
14982;SDS011;7587;51.494;11.930;2022-07-29T14:28:54;2.65;;;1.90;;
14982;SDS011;7587;51.494;11.930;2022-07-29T14:31:20;3.38;;;2.53;;
14982;SDS011;7587;51.494;11.930;2022-07-29T14:33:52;2.88;;;1.80;;
14982;SDS011;7587;51.494;11.930;2022-07-29T14:36:19;3.67;;;1.90;;
14982;SDS011;7587;51.494;11.930;2022-07-29T14:38:45;3.08;;;2.03;;
14982;SDS011;7587;51.494;11.930;2022-07-29T14:44:17;3.60;;;2.30;;
14982;SDS011;7587;51.494;11.930;2022-07-29T14:46:44;6.28;;;1.95;;
14982;SDS011;7587;51.494;11.930;2022-07-29T14:49:25;4.18;;;2.33;;
14982;SDS011;7587;51.494;11.930;2022-07-29T14:51:51;5.40;;;1.88;;
14982;SDS011;7587;51.494;11.930;2022-07-29T14:54:18;5.18;;;2.10;;
14982;SDS011;7587;51.494;11.930;2022-07-29T14:56:45;3.17;;;1.95;;
14982;SDS011;7587;51.494;11.930;2022-07-29T14:59:14;2.15;;;1.90;;
14982;SDS011;7587;51.494;11.930;2022-07-29T15:01:40;3.58;;;2.00;;
14982;SDS011;7587;51.494;11.930;2022-07-29T15:04:07;4.28;;;2.05;;
14982;SDS011;7587;51.494;11.930;2022-07-29T15:09:25;8.73;;;2.17;;
14982;SDS011;7587;51.494;11.930;2022-07-29T15:11:54;4.13;;;1.90;;
14982;SDS011;7587;51.494;11.930;2022-07-29T15:14:29;4.00;;;1.88;;
14982;SDS011;7587;51.494;11.930;2022-07-29T15:16:56;3.08;;;1.98;;
14982;SDS011;7587;51.494;11.930;2022-07-29T15:19:23;5.75;;;2.15;;
14982;SDS011;7587;51.494;11.930;2022-07-29T15:22:12;3.40;;;1.73;;
14982;SDS011;7587;51.494;11.930;2022-07-29T15:24:39;4.32;;;1.98;;
14982;SDS011;7587;51.494;11.930;2022-07-29T15:27:09;4.05;;;2.45;;
14982;SDS011;7587;51.494;11.930;2022-07-29T15:29:39;8.27;;;2.50;;
14982;SDS011;7587;51.494;11.930;2022-07-29T15:32:05;4.88;;;1.80;;
14982;SDS011;7587;51.494;11.930;2022-07-29T15:34:32;7.15;;;2.08;;
14982;SDS011;7587;51.494;11.930;2022-07-29T15:36:59;4.38;;;1.88;;
14982;SDS011;7587;51.494;11.930;2022-07-29T15:39:28;4.30;;;2.05;;
14982;SDS011;7587;51.494;11.930;2022-07-29T15:42:10;3.08;;;2.15;;
14982;SDS011;7587;51.494;11.930;2022-07-29T15:44:37;11.63;;;2.78;;
14982;SDS011;7587;51.494;11.930;2022-07-29T15:47:03;3.28;;;2.05;;
14982;SDS011;7587;51.494;11.930;2022-07-29T15:49:30;3.55;;;2.28;;
14982;SDS011;7587;51.494;11.930;2022-07-29T15:51:57;2.38;;;2.00;;
14982;SDS011;7587;51.494;11.930;2022-07-29T15:54:23;4.85;;;2.10;;
14982;SDS011;7587;51.494;11.930;2022-07-29T15:56:50;2.72;;;2.00;;
14982;SDS011;7587;51.494;11.930;2022-07-29T15:59:19;4.25;;;2.10;;
14982;SDS011;7587;51.494;11.930;2022-07-29T16:01:45;4.32;;;2.28;;
14982;SDS011;7587;51.494;11.930;2022-07-29T16:04:12;3.97;;;2.00;;
14982;SDS011;7587;51.494;11.930;2022-07-29T16:06:38;3.65;;;2.08;;
14982;SDS011;7587;51.494;11.930;2022-07-29T16:09:09;6.35;;;2.15;;
14982;SDS011;7587;51.494;11.930;2022-07-29T16:14:41;3.00;;;2.30;;
14982;SDS011;7587;51.494;11.930;2022-07-29T16:17:08;4.90;;;2.35;;
14982;SDS011;7587;51.494;11.930;2022-07-29T16:20:12;4.00;;;2.25;;
14982;SDS011;7587;51.494;11.930;2022-07-29T16:22:31;3.03;;;1.77;;
14982;SDS011;7587;51.494;11.930;2022-07-29T16:24:57;3.67;;;2.10;;
14982;SDS011;7587;51.494;11.930;2022-07-29T16:27:24;5.10;;;2.38;;
14982;SDS011;7587;51.494;11.930;2022-07-29T16:35:55;3.50;;;1.95;;
14982;SDS011;7587;51.494;11.930;2022-07-29T16:38:21;2.10;;;1.88;;
14982;SDS011;7587;51.494;11.930;2022-07-29T16:40:55;3.58;;;2.33;;
14982;SDS011;7587;51.494;11.930;2022-07-29T16:43:22;3.28;;;2.10;;
14982;SDS011;7587;51.494;11.930;2022-07-29T16:45:49;2.30;;;2.00;;
14982;SDS011;7587;51.494;11.930;2022-07-29T16:48:17;3.97;;;2.40;;
14982;SDS011;7587;51.494;11.930;2022-07-29T16:50:45;6.90;;;1.95;;
14982;SDS011;7587;51.494;11.930;2022-07-29T16:53:24;2.20;;;2.00;;
14982;SDS011;7587;51.494;11.930;2022-07-29T16:55:50;3.35;;;2.20;;
14982;SDS011;7587;51.494;11.930;2022-07-29T16:58:17;4.03;;;1.92;;